TimeEDT,TemperatureF,Dew PointF,Humidity,Sea Level PressureIn,VisibilityMPH,Wind Direction,Wind SpeedMPH,Gust SpeedMPH,PrecipitationIn,Events,Conditions,WindDirDegrees,DateUTC
12:02 AM,51.8,48.2,88,29.71,6.0,West,17.3,25.3,0.00,Rain,Light Rain,280,2012-10-15 04:02:00
12:53 AM,51.1,48.0,89,29.72,10.0,West,13.8,-,0.00,Rain,Light Rain,270,2012-10-15 04:53:00
1:16 AM,51.8,46.4,82,29.73,10.0,West,15.0,-,0.00,,Overcast,270,2012-10-15 05:16:00
1:23 AM,51.8,46.4,82,29.74,10.0,West,13.8,-,0.00,,Overcast,270,2012-10-15 05:23:00
1:53 AM,51.1,46.0,83,29.74,10.0,West,19.6,24.2,0.00,,Overcast,270,2012-10-15 05:53:00
2:53 AM,50.0,46.0,86,29.75,10.0,West,13.8,19.6,0.00,,Overcast,270,2012-10-15 06:53:00
3:53 AM,50.0,46.0,86,29.75,10.0,West,13.8,-,N/A,,Overcast,270,2012-10-15 07:53:00
4:20 AM,48.2,46.4,93,29.75,5.0,West,12.7,-,0.00,Rain,Light Rain,270,2012-10-15 08:20:00
4:38 AM,48.2,46.4,93,29.74,3.0,West,11.5,-,0.00,,Overcast,260,2012-10-15 08:38:00
4:53 AM,48.9,46.9,93,29.75,4.0,West,12.7,-,0.00,,Overcast,270,2012-10-15 08:53:00
5:53 AM,48.9,46.0,90,29.76,4.0,West,11.5,18.4,0.01,Rain,Light Rain,280,2012-10-15 09:53:00
6:25 AM,48.2,46.4,93,29.77,5.0,West,10.4,-,0.00,,Overcast,280,2012-10-15 10:25:00
6:33 AM,48.2,46.4,93,29.77,6.0,West,11.5,-,0.00,,Overcast,270,2012-10-15 10:33:00
6:53 AM,48.9,46.0,90,29.78,10.0,West,10.4,-,0.00,,Overcast,270,2012-10-15 10:53:00
7:05 AM,48.2,46.4,93,29.78,9.0,West,10.4,-,N/A,,Overcast,280,2012-10-15 11:05:00
7:08 AM,48.2,46.4,93,29.78,7.0,West,11.5,-,0.00,Rain,Light Rain,270,2012-10-15 11:08:00
7:16 AM,48.2,46.4,93,29.78,6.0,West,10.4,-,0.00,Rain,Light Rain,270,2012-10-15 11:16:00
7:39 AM,48.2,46.4,93,29.79,10.0,West,9.2,-,0.00,,Overcast,270,2012-10-15 11:39:00
7:53 AM,48.9,46.0,90,29.79,10.0,West,8.1,-,0.00,Rain,Light Rain,280,2012-10-15 11:53:00
8:39 AM,48.2,46.4,93,29.81,10.0,West,8.1,-,0.00,,Overcast,260,2012-10-15 12:39:00
8:47 AM,48.2,46.4,93,29.81,10.0,West,8.1,-,0.00,,Overcast,260,2012-10-15 12:47:00
8:53 AM,48.9,46.0,90,29.82,10.0,West,8.1,-,0.00,,Overcast,260,2012-10-15 12:53:00
9:53 AM,50.0,46.0,86,29.84,10.0,West,10.4,-,N/A,,Overcast,270,2012-10-15 13:53:00
10:53 AM,50.0,44.1,80,29.86,10.0,WNW,9.2,-,N/A,,Overcast,290,2012-10-15 14:53:00
11:24 AM,50.0,42.8,76,29.86,10.0,WNW,11.5,-,N/A,,Overcast,290,2012-10-15 15:24:00
11:53 AM,50.0,43.0,77,29.88,10.0,WNW,11.5,-,N/A,,Overcast,290,2012-10-15 15:53:00
12:53 PM,50.0,43.0,77,29.90,10.0,WNW,12.7,-,N/A,,Overcast,300,2012-10-15 16:53:00
1:53 PM,50.0,42.1,74,29.90,10.0,West,15.0,-,N/A,,Overcast,280,2012-10-15 17:53:00
2:53 PM,50.0,41.0,71,29.91,10.0,West,11.5,-,N/A,,Overcast,280,2012-10-15 18:53:00
3:16 PM,50.0,42.8,76,29.91,10.0,West,10.4,-,N/A,,Overcast,280,2012-10-15 19:16:00
3:53 PM,51.1,42.1,71,29.92,10.0,West,12.7,-,N/A,,Overcast,280,2012-10-15 19:53:00
4:53 PM,52.0,41.0,66,29.92,10.0,WNW,10.4,-,N/A,,Mostly Cloudy,290,2012-10-15 20:53:00
5:53 PM,51.1,39.0,63,29.95,10.0,WNW,9.2,-,N/A,,Overcast,290,2012-10-15 21:53:00
6:53 PM,48.9,37.9,66,29.95,10.0,NW,6.9,-,N/A,,Mostly Cloudy,310,2012-10-15 22:53:00
7:53 PM,44.1,36.0,73,29.96,10.0,WNW,5.8,-,N/A,,Clear,300,2012-10-15 23:53:00
8:53 PM,43.0,37.0,80,29.97,10.0,WNW,3.5,-,N/A,,Clear,290,2012-10-16 00:53:00
9:53 PM,39.9,36.0,86,29.98,10.0,Calm,Calm,-,N/A,,Clear,0,2012-10-16 01:53:00
10:53 PM,37.9,35.1,89,29.99,10.0,Calm,Calm,-,N/A,,Clear,0,2012-10-16 02:53:00
11:53 PM,37.9,36.0,93,29.99,9.0,Calm,Calm,-,N/A,,Clear,0,2012-10-16 03:53:00